Aviation Digital Data Service (ADDS)

Output produced by METARs form (2236 UTC 30 March 2017)
found at http://www.aviationweather.gov/adds/metars/
 
GBYD 302200Z 18004KT 9000 NSC 23/20 Q1012
TAF GBYD 301730Z 3018/3124 26008KT CAVOK